Time;durP1;ratioP1;P1;durP2;ratioP2;P2;SDS_P1;SDS_P2;PMS_P1;PMS_P2;Temp;Humidity;BMP_temperature;BMP_pressure;BME280_temperature;BME280_humidity;BME280_pressure;Samples;Min_cycle;Max_cycle;Signal;HPM_P1;HPM_P2
2020/12/08 00:00:22;;;;;;;43.37;30.43;;;;;;;0.53;85.55;98287.50;125235;1099;65255;-79
2020/12/08 00:09:44;;;;;;;46.10;32.03;;;;;;;0.47;86.07;98292.95;125248;1098;65070;-80
2020/12/08 00:12:10;;;;;;;49.07;32.27;;;;;;;0.43;86.11;98295.69;125173;1098;65158;-80
2020/12/08 00:14:37;;;;;;;48.30;33.90;;;;;;;0.38;85.76;98287.14;125140;1098;65204;-79
2020/12/08 00:17:03;;;;;;;45.10;31.33;;;;;;;0.35;86.27;98284.64;125251;1098;65240;-80
2020/12/08 00:19:30;;;;;;;47.90;33.60;;;;;;;0.34;86.00;98282.06;125318;1098;65166;-80
2020/12/08 00:21:56;;;;;;;43.70;30.40;;;;;;;0.35;86.36;98287.27;124830;1098;65228;-80
2020/12/08 00:24:23;;;;;;;50.55;33.55;;;;;;;0.34;86.26;98285.56;125256;1098;65169;-80
2020/12/08 00:26:49;;;;;;;46.33;32.07;;;;;;;0.34;86.86;98276.83;124905;1098;65182;-80
2020/12/08 00:29:15;;;;;;;48.53;33.57;;;;;;;0.31;86.21;98280.41;125244;1098;65246;-80
2020/12/08 00:31:42;;;;;;;48.93;31.17;;;;;;;0.29;86.48;98277.02;125206;1098;65546;-80
2020/12/08 00:34:08;;;;;;;50.70;33.20;;;;;;;0.27;86.12;98275.37;125185;1098;65139;-80
2020/12/08 00:36:34;;;;;;;45.85;31.60;;;;;;;0.24;86.54;98284.20;125190;1098;65147;-80
2020/12/08 00:39:01;;;;;;;48.30;29.87;;;;;;;0.24;86.88;98281.58;125142;1098;65156;-80
2020/12/08 00:41:27;;;;;;;46.43;29.20;;;;;;;0.25;86.25;98291.13;124821;1100;65147;-79
2020/12/08 00:43:54;;;;;;;40.73;29.10;;;;;;;0.27;86.64;98283.23;125196;1099;65236;-81
2020/12/08 00:46:20;;;;;;;40.60;28.43;;;;;;;0.30;86.74;98283.11;125359;1098;65130;-79
2020/12/08 00:48:47;;;;;;;45.75;30.65;;;;;;;0.28;86.06;98287.55;125248;1098;65127;-81
2020/12/08 00:51:14;;;;;;;45.80;30.90;;;;;;;0.27;86.73;98283.23;125225;1098;65345;-80
2020/12/08 00:53:41;;;;;;;44.20;30.43;;;;;;;0.25;86.74;98285.89;125286;1098;65142;-80
2020/12/08 00:56:12;;;;;;;43.93;29.57;;;;;;;0.23;86.51;98285.09;125221;1098;65143;-80
2020/12/08 00:58:39;;;;;;;40.70;29.27;;;;;;;0.23;86.31;98294.72;124927;1098;65166;-80
2020/12/08 01:01:07;;;;;;;42.50;28.25;;;;;;;0.21;86.60;98293.02;124881;1100;65149;-80
2020/12/08 01:03:34;;;;;;;40.30;28.67;;;;;;;0.24;86.45;98292.05;125227;1098;65285;-81
2020/12/08 01:06:01;;;;;;;45.63;31.33;;;;;;;0.25;86.27;98293.75;124987;1098;65146;-81
2020/12/08 01:08:29;;;;;;;43.70;30.47;;;;;;;0.25;86.76;98292.91;125221;1098;65572;-81
2020/12/08 01:10:55;;;;;;;46.07;32.77;;;;;;;0.21;86.70;98298.27;125213;1098;65182;-82
2020/12/08 01:13:22;;;;;;;46.33;31.50;;;;;;;0.20;86.08;98299.16;124890;1099;65217;-81
2020/12/08 01:15:49;;;;;;;40.87;28.57;;;;;;;0.19;86.25;98291.37;124851;1099;65396;-81
2020/12/08 01:18:15;;;;;;;40.13;28.17;;;;;;;0.18;86.33;98290.48;125295;1098;65192;-81
2020/12/08 01:20:42;;;;;;;41.50;28.80;;;;;;;0.19;86.26;98302.70;125220;1098;65262;-81
2020/12/08 01:23:08;;;;;;;44.57;29.47;;;;;;;0.18;86.08;98305.36;125304;1098;65147;-81
2020/12/08 01:25:35;;;;;;;44.77;30.07;;;;;;;0.15;86.65;98295.84;125269;1098;65324;-81
2020/12/08 01:28:02;;;;;;;42.70;28.57;;;;;;;0.14;86.86;98302.00;125224;1099;65236;-81
2020/12/08 01:30:28;;;;;;;44.33;29.17;;;;;;;0.14;86.37;98296.77;125349;1099;65176;-81
2020/12/08 01:32:54;;;;;;;42.87;28.07;;;;;;;0.15;86.82;98294.99;125269;1098;65124;-81
2020/12/08 01:35:21;;;;;;;40.80;27.87;;;;;;;0.16;86.61;98302.81;125246;1099;65163;-81
2020/12/08 01:37:47;;;;;;;43.50;29.90;;;;;;;0.16;86.43;98294.95;125273;1098;65173;-81
2020/12/08 01:40:14;;;;;;;43.20;29.03;;;;;;;0.16;86.41;98292.33;125184;1098;65297;-81
2020/12/08 01:42:40;;;;;;;43.10;30.47;;;;;;;0.15;86.81;98293.22;125232;1098;65134;-81
2020/12/08 01:45:07;;;;;;;42.60;29.63;;;;;;;0.15;87.02;98287.98;125249;1098;65232;-81
2020/12/08 01:47:34;;;;;;;43.07;28.80;;;;;;;0.16;86.88;98286.24;125264;1099;65156;-81
2020/12/08 01:50:01;;;;;;;36.10;25.97;;;;;;;0.16;86.66;98281.84;125259;1098;65166;-81
2020/12/08 01:52:28;;;;;;;44.47;29.37;;;;;;;0.17;86.74;98288.78;125232;1098;65267;-81
2020/12/08 01:54:57;;;;;;;42.87;28.47;;;;;;;0.20;86.58;98290.44;124820;1099;65212;-81
2020/12/08 01:57:24;;;;;;;;;;;;;;;0.20;86.44;98287.83;125307;1098;65182;-81
2020/12/08 01:59:51;;;;;;;42.97;30.17;;;;;;;0.19;86.31;98286.97;125285;1098;65221;-81
2020/12/08 02:02:17;;;;;;;46.33;28.93;;;;;;;0.16;86.66;98286.24;125203;1098;65137;-81
2020/12/08 02:04:44;;;;;;;46.03;31.33;;;;;;;0.14;86.27;98291.52;125243;1098;65271;-81
2020/12/08 02:07:10;;;;;;;41.97;26.90;;;;;;;0.14;86.89;98293.30;124898;1100;65156;-80
2020/12/08 02:09:37;;;;;;;43.60;26.85;;;;;;;0.13;86.85;98292.45;125252;1098;65079;-81
2020/12/08 02:12:04;;;;;;;45.43;29.52;;;;;;;0.11;86.39;98296.88;125238;1098;65160;-81
2020/12/08 02:14:31;;;;;;;47.30;30.10;;;;;;;0.10;86.80;98305.62;125350;1098;65156;-82
2020/12/08 02:16:57;;;;;;;48.27;31.50;;;;;;;0.09;86.03;98308.33;125256;1098;65300;-81
2020/12/08 02:19:23;;;;;;;45.55;29.95;;;;;;;0.08;86.70;98303.97;124869;1100;65678;-81
2020/12/08 02:21:50;;;;;;;45.23;28.63;;;;;;;0.07;86.61;98310.98;125233;1098;65155;-82
2020/12/08 02:24:18;;;;;;;40.27;26.40;;;;;;;0.08;86.33;98309.21;125211;1098;65176;-81
2020/12/08 02:26:45;;;;;;;43.00;28.40;;;;;;;0.05;86.15;98307.55;124929;1100;65169;-79
2020/12/08 02:29:12;;;;;;;44.15;28.30;;;;;;;0.05;86.67;98306.70;125198;1098;65227;-81
2020/12/08 02:31:38;;;;;;;43.67;28.33;;;;;;;0.04;86.25;98305.86;125248;1098;65530;-79
2020/12/08 02:34:07;;;;;;;43.40;30.03;;;;;;;0.05;86.34;98296.23;125276;1098;65073;-79
2020/12/08 02:36:34;;;;;;;47.37;30.33;;;;;;;0.05;86.32;98302.31;125262;1098;65223;-81
2020/12/08 02:39:01;;;;;;;41.90;28.83;;;;;;;0.04;86.22;98298.00;125313;1098;65147;-81
2020/12/08 02:41:27;;;;;;;39.67;24.83;;;;;;;0.05;86.23;98304.09;124881;1098;65281;-81
2020/12/08 02:43:53;;;;;;;38.53;28.27;;;;;;;0.04;86.65;98308.48;125352;1099;65160;-81
2020/12/08 02:46:22;;;;;;;44.55;28.55;;;;;;;0.05;86.36;98307.55;125348;1098;65178;-81
2020/12/08 02:48:48;;;;;;;45.85;30.80;;;;;;;0.07;86.31;98310.98;125264;1098;65172;-82
2020/12/08 02:51:16;;;;;;;45.87;30.07;;;;;;;0.07;86.68;98316.22;125291;1099;65111;-81
2020/12/08 02:53:43;;;;;;;41.80;28.20;;;;;;;0.08;86.10;98322.31;125306;1098;65166;-81
2020/12/08 02:56:10;;;;;;;45.10;28.17;;;;;;;0.06;86.07;98314.52;125265;1098;65188;-81
2020/12/08 02:58:36;;;;;;;41.77;27.53;;;;;;;0.07;86.60;98317.99;125265;1098;65169;-81
2020/12/08 03:01:04;;;;;;;40.47;25.17;;;;;;;0.06;85.96;98311.06;125259;1098;65171;-81
2020/12/08 03:03:31;;;;;;;42.70;29.75;;;;;;;0.04;86.32;98307.63;125217;1098;65239;-81
2020/12/08 03:05:57;;;;;;;42.27;27.73;;;;;;;0.05;86.31;98309.33;125230;1098;65501;-81
2020/12/08 03:08:24;;;;;;;43.70;28.27;;;;;;;0.05;86.45;98302.31;125215;1098;65077;-81
2020/12/08 03:10:50;;;;;;;41.87;27.07;;;;;;;0.06;86.46;98311.91;124860;1100;65233;-81
2020/12/08 03:13:16;;;;;;;43.35;28.02;;;;;;;0.08;86.53;98311.83;124953;1100;65155;-81
2020/12/08 03:15:43;;;;;;;40.57;28.67;;;;;;;0.08;86.58;98307.47;124878;1100;65127;-81
2020/12/08 03:18:09;;;;;;;47.10;30.03;;;;;;;0.08;86.02;98314.45;125317;1098;65191;-81
2020/12/08 03:20:36;;;;;;;46.37;28.40;;;;;;;0.07;86.27;98323.23;125304;1098;65178;-81
2020/12/08 03:23:02;;;;;;;42.75;30.45;;;;;;;0.07;86.48;98328.47;125199;1098;65249;-81
2020/12/08 03:25:29;;;;;;;42.33;28.40;;;;;;;0.06;86.63;98318.91;125254;1098;65229;-81
2020/12/08 03:27:55;;;;;;;40.60;27.25;;;;;;;0.07;86.01;98316.22;124924;1098;65323;-81
2020/12/08 03:30:21;;;;;;;43.00;28.40;;;;;;;0.09;86.03;98321.42;125245;1100;65296;-81
2020/12/08 03:32:48;;;;;;;44.47;28.83;;;;;;;0.05;86.44;98332.91;125272;1099;65239;-81
2020/12/08 03:35:14;;;;;;;48.13;29.37;;;;;;;0.03;86.13;98329.47;124947;1098;65185;-81
2020/12/08 03:37:40;;;;;;;41.03;27.47;;;;;;;0.00;86.39;98322.61;125298;1099;65245;-81
2020/12/08 03:40:07;;;;;;;39.98;25.85;;;;;;;-0.03;86.37;98327.93;124905;1098;65157;-81
2020/12/08 03:42:33;;;;;;;40.33;26.17;;;;;;;-0.05;86.51;98324.53;124887;1098;65293;-81
2020/12/08 03:45:00;;;;;;;37.83;25.00;;;;;;;-0.05;86.16;98328.00;124958;1098;65152;-81
2020/12/08 03:47:26;;;;;;;41.57;27.60;;;;;;;-0.09;85.82;98323.77;125286;1100;65222;-81
2020/12/08 03:49:53;;;;;;;44.47;27.30;;;;;;;-0.11;86.66;98330.81;124914;1099;65165;-81
2020/12/08 03:52:20;;;;;;;45.25;28.10;;;;;;;-0.14;86.15;98330.08;125258;1098;65530;-81
2020/12/08 03:54:46;;;;;;;37.83;26.20;;;;;;;-0.16;86.60;98331.88;125240;1099;65147;-81
2020/12/08 03:57:12;;;;;;;37.43;25.87;;;;;;;-0.17;85.85;98330.19;124886;1099;65210;-81
2020/12/08 03:59:39;;;;;;;39.07;26.17;;;;;;;-0.18;86.13;98336.34;124881;1098;65124;-80
2020/12/08 04:02:05;;;;;;;43.10;26.80;;;;;;;-0.17;86.39;98345.89;125250;1098;65147;-81
2020/12/08 04:04:32;;;;;;;42.33;27.30;;;;;;;-0.19;86.29;98345.09;125276;1099;65075;-82
2020/12/08 04:06:58;;;;;;;43.53;27.73;;;;;;;-0.20;86.53;98352.09;125248;1098;65233;-81
2020/12/08 04:09:24;;;;;;;40.47;26.00;;;;;;;-0.22;86.67;98346.05;125183;1098;65192;-81
2020/12/08 04:11:51;;;;;;;38.40;26.53;;;;;;;-0.23;86.19;98355.67;125224;1099;65181;-81
2020/12/08 04:14:17;;;;;;;41.60;28.73;;;;;;;-0.23;86.60;98355.67;124906;1099;65255;-81
2020/12/08 04:16:44;;;;;;;40.10;27.73;;;;;;;-0.24;86.49;98350.47;125198;1098;65251;-81
2020/12/08 04:19:11;;;;;;;43.63;28.53;;;;;;;-0.27;86.29;98350.58;125258;1098;65219;-81
2020/12/08 04:21:37;;;;;;;38.27;25.03;;;;;;;-0.30;86.52;98342.83;125244;1098;65243;-81
2020/12/08 04:24:04;;;;;;;40.73;28.83;;;;;;;-0.32;86.56;98337.63;125316;1098;65286;-81
2020/12/08 04:26:32;;;;;;;37.70;25.53;;;;;;;-0.32;86.48;98339.41;124875;1100;65179;-81
2020/12/08 04:29:00;;;;;;;43.30;27.50;;;;;;;-0.34;86.75;98330.73;125269;1098;65294;-81
2020/12/08 04:31:28;;;;;;;40.83;26.30;;;;;;;-0.35;86.89;98331.66;125309;1098;65224;-81
2020/12/08 04:33:55;;;;;;;41.00;26.23;;;;;;;-0.37;86.10;98331.73;125322;1098;65165;-81
2020/12/08 04:36:23;;;;;;;40.60;28.23;;;;;;;-0.37;86.88;98338.70;124908;1098;65152;-81
2020/12/08 04:38:49;;;;;;;39.10;26.53;;;;;;;-0.40;86.65;98326.56;125231;1100;65130;-81
2020/12/08 04:41:22;;;;;;;39.90;25.73;;;;;;;-0.40;87.03;98328.34;125264;1098;65160;-81
2020/12/08 04:43:49;;;;;;;35.97;25.67;;;;;;;-0.45;86.77;98337.22;125284;1098;65217;-81
2020/12/08 04:46:26;;;;;;;42.83;27.93;;;;;;;-0.45;86.55;98341.57;125271;1098;65137;-81
2020/12/08 04:48:53;;;;;;;40.43;25.73;;;;;;;-0.46;86.39;98339.87;124930;1100;65137;-81
2020/12/08 04:51:20;;;;;;;40.77;24.40;;;;;;;-0.47;86.24;98352.11;125303;1099;65176;-84
2020/12/08 04:53:47;;;;;;;38.20;26.50;;;;;;;-0.47;86.41;98351.26;125503;1098;65131;-81
2020/12/08 04:56:14;;;;;;;37.50;25.33;;;;;;;-0.45;86.91;98362.51;124806;1100;65343;-81
2020/12/08 04:58:44;;;;;;;38.97;25.73;;;;;;;-0.45;87.07;98358.16;125183;1098;65168;-80
2020/12/08 05:01:25;;;;;;;40.35;25.68;;;;;;;-0.46;87.05;98364.28;125217;1098;65150;-81
2020/12/08 05:04:01;;;;;;;41.93;26.47;;;;;;;-0.46;86.85;98359.05;125299;1098;65114;-81
2020/12/08 05:06:29;;;;;;;42.03;28.57;;;;;;;-0.46;86.85;98373.90;125226;1098;65297;-81
2020/12/08 05:09:07;;;;;;;42.65;27.45;;;;;;;-0.43;86.94;98365.94;125346;1098;65166;-81
2020/12/08 05:11:36;;;;;;;39.43;26.47;;;;;;;-0.40;86.57;98371.06;125380;1098;65236;-80
2020/12/08 05:14:05;;;;;;;39.37;25.70;;;;;;;-0.35;86.38;98369.16;125216;1098;65140;-80
2020/12/08 05:16:33;;;;;;;46.98;28.45;;;;;;;-0.34;86.32;98372.63;124885;1100;65229;-80
2020/12/08 05:19:10;;;;;;;45.33;27.50;;;;;;;-0.35;86.81;98365.69;125260;1099;65146;-81
2020/12/08 05:21:52;;;;;;;40.87;26.57;;;;;;;-0.34;86.69;98370.01;125266;1098;65259;-81
2020/12/08 05:24:28;;;;;;;41.73;26.50;;;;;;;-0.33;87.09;98364.73;124928;1098;65153;-81
2020/12/08 05:26:59;;;;;;;37.10;25.20;;;;;;;-0.33;86.96;98367.35;125289;1098;65204;-80
2020/12/08 05:29:28;;;;;;;41.30;27.93;;;;;;;-0.32;86.29;98379.52;125287;1098;65130;-80
2020/12/08 05:31:55;;;;;;;41.97;27.80;;;;;;;-0.33;86.56;98377.83;124860;1099;65150;-80
2020/12/08 05:34:23;;;;;;;46.07;28.03;;;;;;;-0.35;86.94;98374.39;125282;1098;65665;-81
2020/12/08 05:36:52;;;;;;;39.73;27.17;;;;;;;-0.32;86.40;98379.52;125285;1098;65221;-81
2020/12/08 05:39:23;;;;;;;40.50;26.50;;;;;;;-0.32;86.36;98378.67;124902;1098;65185;-81
2020/12/08 05:41:51;;;;;;;39.20;24.50;;;;;;;-0.34;86.98;98360.42;125299;1098;65147;-80
2020/12/08 05:44:26;;;;;;;39.07;25.53;;;;;;;-0.38;86.39;98368.41;125320;1099;65230;-81
2020/12/08 05:46:53;;;;;;;40.27;29.03;;;;;;;-0.41;86.67;98369.37;125398;1098;65146;-81
2020/12/08 05:49:20;;;;;;;41.03;27.53;;;;;;;-0.42;86.89;98367.67;125355;1098;65150;-80
2020/12/08 05:51:50;;;;;;;39.83;26.40;;;;;;;-0.43;86.81;98373.80;125283;1098;65214;-80
2020/12/08 05:54:19;;;;;;;35.90;26.00;;;;;;;-0.45;86.53;98388.69;125311;1098;65150;-81
2020/12/08 05:56:52;;;;;;;36.17;25.30;;;;;;;-0.43;86.90;98386.03;125292;1098;65079;-80
2020/12/08 05:59:28;;;;;;;41.57;26.83;;;;;;;-0.43;86.90;98380.80;125228;1098;65159;-81
2020/12/08 06:01:55;;;;;;;40.27;26.50;;;;;;;-0.44;86.45;98387.80;125336;1098;65150;-81
2020/12/08 06:04:22;;;;;;;40.85;26.40;;;;;;;-0.48;87.09;98389.64;125209;1098;65264;-81
2020/12/08 06:06:55;;;;;;;41.57;26.57;;;;;;;-0.50;86.85;98388.86;125219;1098;65134;-81
2020/12/08 06:09:24;;;;;;;40.97;27.50;;;;;;;-0.51;86.81;98386.27;125378;1098;65304;-81
2020/12/08 06:11:50;;;;;;;45.97;28.37;;;;;;;-0.51;86.48;98388.89;125255;1099;65806;-81
2020/12/08 06:14:37;;;;;;;45.30;28.13;;;;;;;-0.53;86.88;98391.55;125274;1098;65127;-81
2020/12/08 06:17:06;;;;;;;44.07;28.07;;;;;;;-0.54;87.03;98392.46;125310;1098;65117;-81
2020/12/08 06:19:34;;;;;;;46.80;29.33;;;;;;;-0.52;86.43;98398.52;125294;1098;65184;-81
2020/12/08 06:22:10;;;;;;;41.67;26.30;;;;;;;-0.51;86.57;98404.59;125254;1099;65170;-81
2020/12/08 06:24:57;;;;;;;44.70;27.63;;;;;;;-0.51;86.58;98405.45;125317;1098;65245;-81
2020/12/08 06:27:24;;;;;;;45.23;28.53;;;;;;;-0.52;87.06;98415.98;125256;1098;65201;-81
2020/12/08 06:29:53;;;;;;;57.33;37.73;;;;;;;-0.54;86.92;98412.55;125267;1098;65137;-80
2020/12/08 06:32:24;;;;;;;54.53;33.43;;;;;;;-0.54;86.89;98412.55;124941;1099;65169;-80
2020/12/08 06:35:09;;;;;;;53.57;31.77;;;;;;;-0.55;86.44;98411.70;125324;1098;65233;-81
2020/12/08 06:37:36;;;;;;;45.60;28.40;;;;;;;-0.54;87.26;98425.64;125335;1098;65181;-81
2020/12/08 06:40:12;;;;;;;45.05;27.90;;;;;;;-0.52;86.93;98424.69;125312;1098;65281;-81
2020/12/08 06:42:38;;;;;;;46.77;28.97;;;;;;;-0.49;86.92;98423.73;125289;1098;65243;-81
2020/12/08 06:45:13;;;;;;;45.73;28.67;;;;;;;-0.50;86.82;98428.11;124873;1098;65105;-81
2020/12/08 06:47:40;;;;;;;40.20;26.85;;;;;;;-0.50;86.82;98422.88;125257;1098;65188;-80
2020/12/08 06:50:20;;;;;;;41.30;27.20;;;;;;;-0.51;86.98;98425.53;125285;1098;65290;-81
2020/12/08 06:52:55;;;;;;;39.90;24.25;;;;;;;-0.50;87.02;98425.50;125328;1098;65073;-81
2020/12/08 06:55:22;;;;;;;42.93;26.13;;;;;;;-0.46;86.51;98436.72;125303;1098;65156;-81
2020/12/08 06:57:49;;;;;;;37.87;25.20;;;;;;;-0.43;87.20;98436.61;125260;1098;65157;-81
2020/12/08 07:00:16;;;;;;;39.50;24.73;;;;;;;-0.40;86.75;98435.66;125209;1098;65121;-80
2020/12/08 07:02:49;;;;;;;38.83;25.90;;;;;;;-0.41;86.20;98440.05;125268;1098;65236;-80
2020/12/08 07:05:22;;;;;;;40.40;25.73;;;;;;;-0.42;86.32;98434.84;124943;1099;65246;-81
2020/12/08 07:07:50;;;;;;;42.60;26.40;;;;;;;-0.41;86.18;98445.28;125354;1098;65178;-80
2020/12/08 07:10:19;;;;;;;39.50;27.63;;;;;;;-0.39;86.39;98438.25;125042;1100;65115;-80
2020/12/08 07:12:51;;;;;;;42.93;27.33;;;;;;;-0.37;86.77;98440.80;125246;1098;65138;-80
2020/12/08 07:15:25;;;;;;;41.73;27.23;;;;;;;-0.36;86.88;98447.77;124851;1098;65089;-80
2020/12/08 07:18:03;;;;;;;40.07;28.13;;;;;;;-0.39;86.85;98455.72;125173;1098;65576;-80
2020/12/08 07:20:31;;;;;;;35.50;23.37;;;;;;;-0.38;86.35;98460.04;124894;1100;65227;-80
2020/12/08 07:23:01;;;;;;;40.55;26.45;;;;;;;-0.37;86.16;98456.50;125317;1098;65146;-81
2020/12/08 07:25:28;;;;;;;43.07;26.97;;;;;;;-0.36;86.30;98455.62;125221;1098;65232;-81
2020/12/08 07:27:55;;;;;;;38.80;26.40;;;;;;;-0.32;86.48;98460.69;125537;1100;65144;-81
2020/12/08 07:30:23;;;;;;;43.13;25.37;;;;;;;-0.30;86.66;98460.65;125140;1098;65118;-81
2020/12/08 07:32:52;;;;;;;38.87;25.20;;;;;;;-0.28;86.40;98466.70;125222;1098;65146;-81
2020/12/08 07:35:30;;;;;;;42.67;28.67;;;;;;;-0.23;86.35;98464.80;124927;1099;65223;-82
2020/12/08 07:37:58;;;;;;;45.87;29.60;;;;;;;-0.15;86.26;98478.50;124915;1099;65277;-81
2020/12/08 07:40:40;;;;;;;44.33;29.13;;;;;;;-0.09;86.30;98478.29;125201;1098;65141;-81
2020/12/08 07:43:07;;;;;;;46.50;29.73;;;;;;;-0.10;85.82;98473.97;125282;1098;65185;-81
2020/12/08 07:45:42;;;;;;;45.97;29.77;;;;;;;-0.09;85.86;98475.67;125177;1099;65170;-81
2020/12/08 07:48:19;;;;;;;41.83;28.33;;;;;;;-0.03;85.93;98469.37;125202;1098;65187;-81
2020/12/08 07:50:46;;;;;;;45.73;28.73;;;;;;;-0.02;86.10;98482.44;125295;1099;65154;-81
2020/12/08 07:53:15;;;;;;;42.57;26.63;;;;;;;-0.03;85.80;98477.23;125280;1099;65147;-81
2020/12/08 07:55:46;;;;;;;42.97;27.80;;;;;;;-0.05;86.10;98479.92;125171;1098;65173;-81
2020/12/08 07:58:13;;;;;;;47.50;30.50;;;;;;;-0.06;85.38;98475.56;125282;1098;65179;-82
2020/12/08 08:00:40;;;;;;;47.47;28.97;;;;;;;0.02;86.01;98482.33;125282;1098;65173;-80
2020/12/08 08:03:06;;;;;;;41.80;26.57;;;;;;;0.03;85.23;98482.30;125186;1098;65289;-83
2020/12/08 08:05:33;;;;;;;45.60;27.03;;;;;;;0.01;85.78;98481.48;125229;1098;65213;-82
2020/12/08 08:07:59;;;;;;;43.60;28.97;;;;;;;0.03;85.15;98489.27;125287;1098;65301;-81
2020/12/08 08:10:26;;;;;;;46.70;27.70;;;;;;;0.04;85.45;98491.85;125194;1098;65264;-81
2020/12/08 08:12:52;;;;;;;46.65;28.85;;;;;;;0.06;85.39;98500.52;125262;1098;65143;-82
2020/12/08 08:15:18;;;;;;;45.23;28.07;;;;;;;0.10;85.95;98496.88;125294;1098;65194;-81
2020/12/08 08:17:46;;;;;;;42.47;27.73;;;;;;;0.18;85.81;98497.48;125288;1098;65528;-81
2020/12/08 08:20:12;;;;;;;40.13;27.57;;;;;;;0.27;85.33;98512.06;125330;1098;65134;-81
2020/12/08 08:22:39;;;;;;;44.87;28.67;;;;;;;0.30;85.67;98492.77;125240;1098;65239;-81
2020/12/08 08:25:05;;;;;;;44.77;29.40;;;;;;;0.28;84.81;98502.44;125175;1098;65203;-81
2020/12/08 08:27:32;;;;;;;43.50;27.93;;;;;;;0.29;85.42;98498.89;124991;1100;65247;-81
2020/12/08 08:29:58;;;;;;;43.90;30.10;;;;;;;0.31;85.45;98492.69;125294;1098;65178;-82
2020/12/08 08:32:25;;;;;;;41.02;27.02;;;;;;;0.36;84.71;98503.88;125201;1098;65207;-82
2020/12/08 08:34:51;;;;;;;45.00;32.67;;;;;;;0.42;85.14;98502.81;125283;1098;65204;-81
2020/12/08 08:37:18;;;;;;;45.20;30.70;;;;;;;0.42;84.64;98503.70;125261;1098;65155;-81
2020/12/08 08:39:44;;;;;;;44.53;29.63;;;;;;;0.39;84.58;98492.44;125231;1098;65214;-81
2020/12/08 08:42:11;;;;;;;47.00;29.73;;;;;;;0.35;84.61;98481.21;124890;1099;65153;-81
2020/12/08 08:44:37;;;;;;;42.50;28.10;;;;;;;0.38;84.46;98475.86;125209;1098;65246;-82
2020/12/08 08:47:03;;;;;;;38.90;27.10;;;;;;;0.45;85.23;98473.90;125273;1098;65124;-81
2020/12/08 08:49:30;;;;;;;41.30;27.60;;;;;;;0.50;85.09;98484.20;125236;1098;65821;-81
2020/12/08 08:51:56;;;;;;;43.90;28.00;;;;;;;0.52;84.54;98490.26;125282;1098;65390;-81
2020/12/08 08:54:23;;;;;;;43.53;27.73;;;;;;;0.50;84.96;98492.06;125321;1098;65153;-81
2020/12/08 08:56:53;;;;;;;46.57;30.57;;;;;;;0.57;84.94;98493.58;125255;1098;65232;-81
2020/12/08 08:59:19;;;;;;;46.83;30.97;;;;;;;0.58;84.26;98496.16;125236;1098;65144;-81
2020/12/08 09:01:46;;;;;;;41.87;28.77;;;;;;;0.58;84.18;98501.41;125246;1098;65169;-82
2020/12/08 09:04:12;;;;;;;41.90;27.65;;;;;;;0.57;84.06;98498.82;124809;1100;65166;-82
2020/12/08 09:06:38;;;;;;;49.40;31.10;;;;;;;0.62;84.80;98500.37;125307;1098;65194;-81
2020/12/08 09:09:05;;;;;;;43.53;31.50;;;;;;;0.66;84.21;98503.77;125310;1098;65147;-81
2020/12/08 09:11:31;;;;;;;46.00;31.77;;;;;;;0.69;84.25;98497.56;124849;1100;65156;-81
2020/12/08 09:13:58;;;;;;;45.50;29.95;;;;;;;0.74;84.05;98496.48;125229;1099;65147;-81
2020/12/08 09:16:25;;;;;;;47.90;30.37;;;;;;;0.77;84.38;98485.03;125269;1098;65319;-80
2020/12/08 09:18:52;;;;;;;39.87;28.13;;;;;;;0.70;83.84;98500.11;125211;1098;65179;-82
2020/12/08 09:21:19;;;;;;;47.30;30.13;;;;;;;0.72;83.98;98494.82;124857;1098;65172;-80
2020/12/08 09:23:45;;;;;;;49.10;32.07;;;;;;;0.74;84.38;98493.86;125222;1098;65229;-81
2020/12/08 09:26:11;;;;;;;47.20;30.55;;;;;;;0.77;84.51;98491.13;125297;1098;65076;-82
2020/12/08 09:28:38;;;;;;;42.98;29.18;;;;;;;0.73;84.25;98481.63;124950;1100;65249;-81
2020/12/08 09:31:04;;;;;;;47.33;30.33;;;;;;;0.72;84.16;98492.20;125315;1098;65163;-83
2020/12/08 09:33:31;;;;;;;49.50;32.80;;;;;;;0.78;84.74;98489.34;124985;1098;65226;-93
2020/12/08 09:35:57;;;;;;;48.03;32.80;;;;;;;0.86;84.57;98495.17;125481;1099;65185;-92
2020/12/08 09:38:24;;;;;;;51.40;32.80;;;;;;;0.89;84.40;98502.93;124891;1099;65667;-76
2020/12/08 09:40:50;;;;;;;47.75;32.80;;;;;;;0.89;83.85;98513.42;125200;1098;65172;-81
2020/12/08 09:43:17;;;;;;;48.43;33.20;;;;;;;0.77;83.35;98508.63;124831;1098;65248;-80
2020/12/08 09:45:43;;;;;;;49.47;32.93;;;;;;;0.74;83.69;98514.84;125162;1098;65157;-78
2020/12/08 09:48:10;;;;;;;46.60;31.23;;;;;;;0.78;83.75;98518.20;125278;1100;65321;-77
2020/12/08 09:50:36;;;;;;;46.33;31.77;;;;;;;0.84;84.37;98512.73;125183;1098;65186;-82
2020/12/08 09:53:03;;;;;;;51.63;33.50;;;;;;;0.86;83.70;98501.27;125231;1099;65271;-79
2020/12/08 09:55:29;;;;;;;54.08;36.50;;;;;;;0.84;83.68;98497.88;125230;1098;65150;-80
2020/12/08 09:57:56;;;;;;;51.33;32.83;;;;;;;0.88;83.36;98494.21;125120;1098;65185;-79
2020/12/08 10:00:22;;;;;;;44.67;29.03;;;;;;;0.93;83.81;98499.30;125264;1098;65130;-83
2020/12/08 10:02:48;;;;;;;48.55;32.40;;;;;;;1.01;83.85;98485.91;124960;1098;65274;-85
2020/12/08 10:05:15;;;;;;;47.13;32.13;;;;;;;1.12;83.86;98488.98;125052;1100;65182;-78
2020/12/08 10:07:42;;;;;;;47.55;32.17;;;;;;;1.22;83.69;98486.89;125185;1098;65153;-79
2020/12/08 10:10:09;;;;;;;54.83;35.73;;;;;;;1.26;82.81;98496.34;125226;1099;65198;-78
2020/12/08 10:12:36;;;;;;;48.63;31.83;;;;;;;1.25;83.34;98495.49;125113;1098;65154;-79
2020/12/08 10:15:05;;;;;;;52.13;33.03;;;;;;;1.28;83.04;98497.14;125144;1098;65166;-79
2020/12/08 10:17:31;;;;;;;50.50;32.57;;;;;;;1.33;82.89;98491.73;125170;1098;65217;-78
2020/12/08 10:19:57;;;;;;;45.17;32.80;;;;;;;1.40;83.13;98501.09;125186;1098;65235;-78
2020/12/08 10:22:24;;;;;;;52.60;33.90;;;;;;;1.47;83.06;98502.55;125307;1098;65229;-77
2020/12/08 10:24:50;;;;;;;52.43;35.77;;;;;;;1.56;83.29;98501.38;125274;1098;65511;-79
2020/12/08 10:27:17;;;;;;;54.03;36.63;;;;;;;1.61;82.82;98500.27;125220;1098;65326;-78
2020/12/08 10:29:43;;;;;;;57.40;37.57;;;;;;;1.65;83.39;98506.25;125172;1098;65234;-78
2020/12/08 10:32:10;;;;;;;46.37;32.70;;;;;;;1.70;82.70;98509.56;125231;1098;65261;-78
2020/12/08 10:34:36;;;;;;;50.13;33.17;;;;;;;1.69;82.24;98507.86;125239;1098;65232;-77
2020/12/08 10:37:02;;;;;;;44.43;31.40;;;;;;;1.62;82.35;98501.97;125174;1098;65216;-77
2020/12/08 10:39:29;;;;;;;43.03;31.47;;;;;;;1.56;82.71;98507.47;125153;1098;65186;-79
2020/12/08 10:41:56;;;;;;;50.07;31.90;;;;;;;1.50;82.62;98511.19;124804;1099;65076;-78
2020/12/08 10:44:23;;;;;;;45.53;31.67;;;;;;;1.43;82.90;98514.10;125218;1098;65127;-78
2020/12/08 10:46:51;;;;;;;118.77;80.47;;;;;;;1.40;82.58;98498.47;125185;1098;65137;-78
2020/12/08 10:49:18;;;;;;;54.03;38.67;;;;;;;1.43;83.26;98488.70;124821;1098;65121;-78
2020/12/08 10:51:45;;;;;;;50.97;35.67;;;;;;;1.45;82.69;98500.00;125213;1098;65242;-78
2020/12/08 10:54:12;;;;;;;50.23;37.27;;;;;;;1.49;83.13;98505.98;125172;1098;65313;-78
2020/12/08 10:56:38;;;;;;;54.93;35.00;;;;;;;1.52;82.80;98508.48;125146;1098;65204;-78
2020/12/08 10:59:07;;;;;;;59.77;37.47;;;;;;;1.49;82.84;98503.36;124839;1098;65173;-78
2020/12/08 11:01:33;;;;;;;49.63;33.23;;;;;;;1.44;82.81;98494.80;125158;1098;65147;-78
2020/12/08 11:04:00;;;;;;;51.00;37.37;;;;;;;1.42;82.58;98493.99;125162;1098;65267;-78
2020/12/08 11:06:28;;;;;;;55.57;42.80;;;;;;;1.49;83.11;98490.23;124773;1100;65150;-78
2020/12/08 11:08:55;;;;;;;69.40;47.90;;;;;;;1.59;82.92;98490.73;125206;1098;65188;-79
2020/12/08 11:11:27;;;;;;;52.47;37.93;;;;;;;1.66;82.88;98494.81;125178;1099;65169;-78
2020/12/08 11:13:55;;;;;;;64.37;51.90;;;;;;;1.69;82.71;98498.20;125232;1098;65082;-78
2020/12/08 11:16:22;;;;;;;51.40;38.67;;;;;;;1.71;82.88;98498.13;125253;1098;65159;-78
2020/12/08 11:18:49;;;;;;;53.27;36.67;;;;;;;1.72;82.77;98491.97;125178;1098;65220;-78
2020/12/08 11:21:25;;;;;;;53.97;36.53;;;;;;;1.72;82.33;98490.20;125238;1098;65070;-78
2020/12/08 11:23:52;;;;;;;50.43;35.07;;;;;;;1.80;82.92;98482.02;124845;1099;65226;-78